sensor_id;sensor_type;location;lat;lon;timestamp;pressure;altitude;pressure_sealevel;temperature;humidity
35910;BME280;22004;49.120;-0.200;2023-01-28T00:00:28;102754.97;;;8.26;62.44
35910;BME280;22004;49.120;-0.200;2023-01-28T00:02:53;102754.63;;;8.31;62.61
35910;BME280;22004;49.120;-0.200;2023-01-28T00:05:19;102754.47;;;8.21;62.96
35910;BME280;22004;49.120;-0.200;2023-01-28T00:07:44;102755.47;;;8.32;62.39
35910;BME280;22004;49.120;-0.200;2023-01-28T00:10:10;102753.16;;;8.27;62.94
35910;BME280;22004;49.120;-0.200;2023-01-28T00:12:35;102758.16;;;8.32;62.55
35910;BME280;22004;49.120;-0.200;2023-01-28T00:15:01;102745.03;;;8.04;62.99
35910;BME280;22004;49.120;-0.200;2023-01-28T00:17:26;102756.00;;;8.13;62.95
35910;BME280;22004;49.120;-0.200;2023-01-28T00:19:51;102750.84;;;8.34;62.99
35910;BME280;22004;49.120;-0.200;2023-01-28T00:22:17;102751.53;;;8.24;63.11
35910;BME280;22004;49.120;-0.200;2023-01-28T00:24:42;102744.81;;;8.43;62.36
35910;BME280;22004;49.120;-0.200;2023-01-28T00:27:08;102747.00;;;8.38;62.88
35910;BME280;22004;49.120;-0.200;2023-01-28T00:29:33;102748.50;;;7.94;63.75
35910;BME280;22004;49.120;-0.200;2023-01-28T00:31:58;102744.88;;;8.30;62.78
35910;BME280;22004;49.120;-0.200;2023-01-28T00:34:24;102745.28;;;8.01;62.89
35910;BME280;22004;49.120;-0.200;2023-01-28T00:36:49;102750.78;;;8.11;63.12
35910;BME280;22004;49.120;-0.200;2023-01-28T00:39:22;102749.47;;;8.17;62.83
35910;BME280;22004;49.120;-0.200;2023-01-28T00:41:48;102743.16;;;8.29;62.13
35910;BME280;22004;49.120;-0.200;2023-01-28T00:44:13;102754.06;;;8.39;62.15
35910;BME280;22004;49.120;-0.200;2023-01-28T00:46:39;102745.34;;;8.24;61.85
35910;BME280;22004;49.120;-0.200;2023-01-28T00:49:06;102752.75;;;8.20;62.37
35910;BME280;22004;49.120;-0.200;2023-01-28T00:51:31;102755.69;;;8.28;62.45
35910;BME280;22004;49.120;-0.200;2023-01-28T00:53:57;102753.53;;;8.34;62.30
35910;BME280;22004;49.120;-0.200;2023-01-28T00:56:22;102751.69;;;8.34;61.38
35910;BME280;22004;49.120;-0.200;2023-01-28T00:58:47;102747.84;;;8.14;61.86
35910;BME280;22004;49.120;-0.200;2023-01-28T01:01:19;102750.00;;;8.33;61.83
35910;BME280;22004;49.120;-0.200;2023-01-28T01:03:45;102751.78;;;8.21;61.24
35910;BME280;22004;49.120;-0.200;2023-01-28T01:06:13;102756.22;;;8.10;63.05
35910;BME280;22004;49.120;-0.200;2023-01-28T01:08:39;102762.50;;;8.21;59.23
35910;BME280;22004;49.120;-0.200;2023-01-28T01:11:08;102751.53;;;8.24;60.50
35910;BME280;22004;49.120;-0.200;2023-01-28T01:13:33;102760.38;;;8.38;61.79
35910;BME280;22004;49.120;-0.200;2023-01-28T01:16:11;102757.84;;;8.12;62.03
35910;BME280;22004;49.120;-0.200;2023-01-28T01:18:37;102756.25;;;8.45;61.27
35910;BME280;22004;49.120;-0.200;2023-01-28T01:21:14;102758.25;;;8.30;61.17
35910;BME280;22004;49.120;-0.200;2023-01-28T01:23:42;102761.88;;;8.18;60.15
35910;BME280;22004;49.120;-0.200;2023-01-28T01:26:08;102760.94;;;8.30;61.88
35910;BME280;22004;49.120;-0.200;2023-01-28T01:28:34;102758.50;;;8.51;61.04
35910;BME280;22004;49.120;-0.200;2023-01-28T01:31:04;102754.56;;;8.20;62.15
35910;BME280;22004;49.120;-0.200;2023-01-28T01:33:30;102767.16;;;8.31;61.42
35910;BME280;22004;49.120;-0.200;2023-01-28T01:35:57;102765.72;;;7.42;61.35
35910;BME280;22004;49.120;-0.200;2023-01-28T01:38:22;102761.25;;;7.90;57.45
35910;BME280;22004;49.120;-0.200;2023-01-28T01:40:48;102761.91;;;8.05;59.79
35910;BME280;22004;49.120;-0.200;2023-01-28T01:43:16;102764.88;;;7.89;62.16
35910;BME280;22004;49.120;-0.200;2023-01-28T01:45:42;102762.44;;;8.10;61.33
35910;BME280;22004;49.120;-0.200;2023-01-28T01:48:22;102767.59;;;8.24;60.24
35910;BME280;22004;49.120;-0.200;2023-01-28T01:50:56;102774.22;;;8.08;62.56
35910;BME280;22004;49.120;-0.200;2023-01-28T01:53:24;102774.75;;;8.13;62.02
35910;BME280;22004;49.120;-0.200;2023-01-28T01:55:53;102780.38;;;7.97;61.97
35910;BME280;22004;49.120;-0.200;2023-01-28T01:58:22;102779.31;;;8.35;60.65
35910;BME280;22004;49.120;-0.200;2023-01-28T02:00:50;102775.75;;;8.23;60.66
35910;BME280;22004;49.120;-0.200;2023-01-28T02:03:19;102773.91;;;7.75;60.39
35910;BME280;22004;49.120;-0.200;2023-01-28T02:05:48;102774.09;;;7.61;59.26
35910;BME280;22004;49.120;-0.200;2023-01-28T02:08:14;102773.84;;;8.01;60.42
35910;BME280;22004;49.120;-0.200;2023-01-28T02:10:51;102761.16;;;7.18;63.86
35910;BME280;22004;49.120;-0.200;2023-01-28T02:13:19;102760.50;;;7.64;62.01
35910;BME280;22004;49.120;-0.200;2023-01-28T02:15:46;102779.75;;;7.93;58.73
35910;BME280;22004;49.120;-0.200;2023-01-28T02:18:13;102764.66;;;7.19;61.90
35910;BME280;22004;49.120;-0.200;2023-01-28T02:29:04;102775.69;;;7.64;62.35
35910;BME280;22004;49.120;-0.200;2023-01-28T02:31:43;102779.19;;;8.01;61.95
35910;BME280;22004;49.120;-0.200;2023-01-28T02:34:35;102780.56;;;7.46;60.59
35910;BME280;22004;49.120;-0.200;2023-01-28T02:37:12;102780.94;;;7.89;59.93
35910;BME280;22004;49.120;-0.200;2023-01-28T02:39:42;102778.69;;;7.59;62.55
35910;BME280;22004;49.120;-0.200;2023-01-28T02:42:18;102784.22;;;7.69;61.96
35910;BME280;22004;49.120;-0.200;2023-01-28T02:44:45;102781.94;;;6.37;60.88
35910;BME280;22004;49.120;-0.200;2023-01-28T02:47:11;102783.25;;;6.69;58.71
35910;BME280;22004;49.120;-0.200;2023-01-28T02:49:58;102773.16;;;5.81;63.04
35910;BME280;22004;49.120;-0.200;2023-01-28T03:01:19;102757.63;;;6.54;57.18
35910;BME280;22004;49.120;-0.200;2023-01-28T03:04:03;102769.00;;;6.31;64.67
35910;BME280;22004;49.120;-0.200;2023-01-28T03:06:37;102770.00;;;6.03;60.35
35910;BME280;22004;49.120;-0.200;2023-01-28T03:09:09;102775.50;;;6.92;62.64
35910;BME280;22004;49.120;-0.200;2023-01-28T03:11:58;102779.41;;;7.37;62.58
35910;BME280;22004;49.120;-0.200;2023-01-28T03:14:49;102779.97;;;6.79;61.83
35910;BME280;22004;49.120;-0.200;2023-01-28T03:17:43;102784.47;;;7.16;58.37
35910;BME280;22004;49.120;-0.200;2023-01-28T03:20:34;102784.84;;;7.72;62.84
35910;BME280;22004;49.120;-0.200;2023-01-28T03:23:24;102790.25;;;7.84;58.59
35910;BME280;22004;49.120;-0.200;2023-01-28T03:26:11;102790.28;;;7.47;58.79
35910;BME280;22004;49.120;-0.200;2023-01-28T03:29:01;102787.25;;;8.12;61.52
35910;BME280;22004;49.120;-0.200;2023-01-28T03:31:49;102777.19;;;6.67;64.65
35910;BME280;22004;49.120;-0.200;2023-01-28T03:34:33;102781.34;;;6.59;63.57
35910;BME280;22004;49.120;-0.200;2023-01-28T03:37:17;102779.81;;;6.02;61.22
35910;BME280;22004;49.120;-0.200;2023-01-28T03:39:43;102785.63;;;6.99;61.98
35910;BME280;22004;49.120;-0.200;2023-01-28T03:42:10;102790.56;;;6.40;60.26
35910;BME280;22004;49.120;-0.200;2023-01-28T03:44:36;102790.00;;;7.00;61.11
35910;BME280;22004;49.120;-0.200;2023-01-28T03:47:24;102779.19;;;7.28;60.71
35910;BME280;22004;49.120;-0.200;2023-01-28T03:49:52;102775.91;;;7.11;64.49
35910;BME280;22004;49.120;-0.200;2023-01-28T03:52:20;102771.59;;;7.34;62.07
35910;BME280;22004;49.120;-0.200;2023-01-28T03:54:48;102764.78;;;7.17;59.33
35910;BME280;22004;49.120;-0.200;2023-01-28T03:57:17;102767.84;;;7.73;62.07
35910;BME280;22004;49.120;-0.200;2023-01-28T03:59:43;102761.63;;;6.87;61.94
35910;BME280;22004;49.120;-0.200;2023-01-28T04:02:09;102759.31;;;7.68;60.22
35910;BME280;22004;49.120;-0.200;2023-01-28T04:04:39;102759.53;;;7.29;63.63
35910;BME280;22004;49.120;-0.200;2023-01-28T04:07:06;102757.44;;;7.82;61.76
35910;BME280;22004;49.120;-0.200;2023-01-28T04:09:37;102766.03;;;7.98;61.75
35910;BME280;22004;49.120;-0.200;2023-01-28T04:12:03;102758.31;;;8.06;61.64
35910;BME280;22004;49.120;-0.200;2023-01-28T04:14:29;102763.69;;;7.69;59.40
35910;BME280;22004;49.120;-0.200;2023-01-28T04:16:55;102762.22;;;7.89;61.87
35910;BME280;22004;49.120;-0.200;2023-01-28T04:19:21;102768.19;;;7.93;62.53
35910;BME280;22004;49.120;-0.200;2023-01-28T04:21:47;102768.06;;;8.18;61.31
35910;BME280;22004;49.120;-0.200;2023-01-28T04:24:14;102776.59;;;8.23;61.44
35910;BME280;22004;49.120;-0.200;2023-01-28T04:26:39;102781.44;;;8.18;62.09
35910;BME280;22004;49.120;-0.200;2023-01-28T04:29:05;102783.41;;;8.16;61.48
35910;BME280;22004;49.120;-0.200;2023-01-28T04:31:31;102776.97;;;8.30;61.66
35910;BME280;22004;49.120;-0.200;2023-01-28T04:33:56;102789.47;;;7.94;61.99
35910;BME280;22004;49.120;-0.200;2023-01-28T04:36:22;102789.69;;;8.15;62.18
35910;BME280;22004;49.120;-0.200;2023-01-28T04:38:48;102800.13;;;8.07;62.18
35910;BME280;22004;49.120;-0.200;2023-01-28T04:41:13;102803.53;;;8.33;61.91
35910;BME280;22004;49.120;-0.200;2023-01-28T04:43:38;102809.97;;;8.31;61.60
35910;BME280;22004;49.120;-0.200;2023-01-28T04:46:04;102806.41;;;8.30;61.98
35910;BME280;22004;49.120;-0.200;2023-01-28T04:48:29;102802.38;;;8.37;61.77
35910;BME280;22004;49.120;-0.200;2023-01-28T04:50:59;102806.84;;;8.13;61.34
35910;BME280;22004;49.120;-0.200;2023-01-28T04:53:24;102802.44;;;8.36;62.11
35910;BME280;22004;49.120;-0.200;2023-01-28T04:55:49;102801.19;;;8.28;61.25
35910;BME280;22004;49.120;-0.200;2023-01-28T04:58:15;102804.13;;;8.25;61.43
35910;BME280;22004;49.120;-0.200;2023-01-28T05:00:40;102796.78;;;7.92;60.32
35910;BME280;22004;49.120;-0.200;2023-01-28T05:03:05;102808.34;;;7.31;63.08
35910;BME280;22004;49.120;-0.200;2023-01-28T05:05:31;102790.19;;;6.07;62.29
35910;BME280;22004;49.120;-0.200;2023-01-28T05:07:57;102800.97;;;7.34;63.25
35910;BME280;22004;49.120;-0.200;2023-01-28T05:10:23;102792.75;;;6.21;64.83
35910;BME280;22004;49.120;-0.200;2023-01-28T05:12:49;102801.22;;;7.06;63.43
35910;BME280;22004;49.120;-0.200;2023-01-28T05:15:16;102789.81;;;7.16;63.39
35910;BME280;22004;49.120;-0.200;2023-01-28T05:17:44;102804.69;;;8.18;61.96
35910;BME280;22004;49.120;-0.200;2023-01-28T05:20:11;102801.19;;;8.28;61.63
35910;BME280;22004;49.120;-0.200;2023-01-28T05:22:37;102804.97;;;8.26;61.72
35910;BME280;22004;49.120;-0.200;2023-01-28T05:25:03;102802.28;;;8.26;62.05
35910;BME280;22004;49.120;-0.200;2023-01-28T05:27:29;102810.53;;;8.23;62.02
35910;BME280;22004;49.120;-0.200;2023-01-28T05:29:55;102796.22;;;8.35;61.63
35910;BME280;22004;49.120;-0.200;2023-01-28T05:32:20;102802.94;;;8.06;62.22
35910;BME280;22004;49.120;-0.200;2023-01-28T05:34:46;102814.53;;;8.17;62.66
35910;BME280;22004;49.120;-0.200;2023-01-28T05:37:11;102809.47;;;8.01;61.70
35910;BME280;22004;49.120;-0.200;2023-01-28T05:39:36;102807.09;;;7.73;62.87
35910;BME280;22004;49.120;-0.200;2023-01-28T05:42:02;102811.16;;;8.26;61.82
35910;BME280;22004;49.120;-0.200;2023-01-28T05:44:27;102811.72;;;8.19;61.63
35910;BME280;22004;49.120;-0.200;2023-01-28T05:46:53;102815.38;;;8.18;61.79
35910;BME280;22004;49.120;-0.200;2023-01-28T05:49:18;102826.97;;;8.29;61.83
35910;BME280;22004;49.120;-0.200;2023-01-28T05:51:43;102807.59;;;8.39;61.81
35910;BME280;22004;49.120;-0.200;2023-01-28T05:54:09;102811.91;;;8.28;61.61
35910;BME280;22004;49.120;-0.200;2023-01-28T05:56:34;102821.41;;;8.33;61.42
35910;BME280;22004;49.120;-0.200;2023-01-28T05:59:02;102826.09;;;8.42;61.64
35910;BME280;22004;49.120;-0.200;2023-01-28T06:01:27;102827.59;;;8.33;61.90
35910;BME280;22004;49.120;-0.200;2023-01-28T06:03:53;102841.19;;;8.43;61.77
35910;BME280;22004;49.120;-0.200;2023-01-28T06:06:18;102837.75;;;8.17;61.55
35910;BME280;22004;49.120;-0.200;2023-01-28T06:08:44;102845.81;;;8.41;62.06
35910;BME280;22004;49.120;-0.200;2023-01-28T06:11:09;102849.00;;;8.46;61.69
35910;BME280;22004;49.120;-0.200;2023-01-28T06:13:34;102844.00;;;8.41;61.57
35910;BME280;22004;49.120;-0.200;2023-01-28T06:16:01;102843.66;;;8.46;61.38
35910;BME280;22004;49.120;-0.200;2023-01-28T06:18:26;102845.34;;;8.47;61.60
35910;BME280;22004;49.120;-0.200;2023-01-28T06:20:52;102845.47;;;8.45;61.74
35910;BME280;22004;49.120;-0.200;2023-01-28T06:23:17;102837.19;;;8.48;61.44
35910;BME280;22004;49.120;-0.200;2023-01-28T06:25:45;102836.13;;;8.51;61.28
35910;BME280;22004;49.120;-0.200;2023-01-28T06:28:11;102836.34;;;8.48;61.34
35910;BME280;22004;49.120;-0.200;2023-01-28T06:30:36;102845.00;;;8.51;61.25
35910;BME280;22004;49.120;-0.200;2023-01-28T06:33:02;102852.06;;;8.52;61.39
35910;BME280;22004;49.120;-0.200;2023-01-28T06:35:27;102839.53;;;8.53;61.18
35910;BME280;22004;49.120;-0.200;2023-01-28T06:37:53;102844.59;;;8.45;61.33
35910;BME280;22004;49.120;-0.200;2023-01-28T06:40:19;102847.91;;;8.48;61.45
35910;BME280;22004;49.120;-0.200;2023-01-28T06:42:46;102852.53;;;8.46;61.59
35910;BME280;22004;49.120;-0.200;2023-01-28T06:45:14;102855.28;;;8.45;61.48
35910;BME280;22004;49.120;-0.200;2023-01-28T06:47:39;102860.06;;;8.41;61.36
35910;BME280;22004;49.120;-0.200;2023-01-28T06:50:05;102861.97;;;8.39;61.68
35910;BME280;22004;49.120;-0.200;2023-01-28T06:52:31;102857.91;;;8.34;61.82
35910;BME280;22004;49.120;-0.200;2023-01-28T06:54:56;102863.13;;;8.35;61.61
35910;BME280;22004;49.120;-0.200;2023-01-28T06:57:29;102862.94;;;8.38;61.61
35910;BME280;22004;49.120;-0.200;2023-01-28T06:59:54;102856.28;;;8.44;62.25
35910;BME280;22004;49.120;-0.200;2023-01-28T07:02:19;102851.78;;;8.44;61.72
35910;BME280;22004;49.120;-0.200;2023-01-28T07:04:44;102863.56;;;8.42;62.13
35910;BME280;22004;49.120;-0.200;2023-01-28T07:07:10;102856.00;;;7.99;61.06
35910;BME280;22004;49.120;-0.200;2023-01-28T07:09:35;102862.22;;;8.36;61.84
35910;BME280;22004;49.120;-0.200;2023-01-28T07:12:01;102864.72;;;8.50;61.72
35910;BME280;22004;49.120;-0.200;2023-01-28T07:14:29;102866.28;;;8.53;61.48
35910;BME280;22004;49.120;-0.200;2023-01-28T07:16:57;102852.41;;;8.48;61.72
35910;BME280;22004;49.120;-0.200;2023-01-28T07:19:25;102856.56;;;8.52;61.63
35910;BME280;22004;49.120;-0.200;2023-01-28T07:21:50;102850.56;;;8.48;61.37
35910;BME280;22004;49.120;-0.200;2023-01-28T07:24:15;102860.50;;;7.62;61.45
35910;BME280;22004;49.120;-0.200;2023-01-28T07:26:40;102868.25;;;8.14;62.62
35910;BME280;22004;49.120;-0.200;2023-01-28T07:29:07;102867.97;;;8.43;61.76
35910;BME280;22004;49.120;-0.200;2023-01-28T07:31:32;102859.59;;;8.47;61.78
35910;BME280;22004;49.120;-0.200;2023-01-28T07:33:58;102874.66;;;8.48;61.65
35910;BME280;22004;49.120;-0.200;2023-01-28T07:36:26;102871.88;;;8.50;61.89
35910;BME280;22004;49.120;-0.200;2023-01-28T07:38:51;102880.88;;;8.49;61.50
35910;BME280;22004;49.120;-0.200;2023-01-28T07:41:17;102878.44;;;8.46;61.64
35910;BME280;22004;49.120;-0.200;2023-01-28T07:43:42;102871.28;;;8.46;61.75
35910;BME280;22004;49.120;-0.200;2023-01-28T07:46:08;102868.31;;;8.38;61.84
35910;BME280;22004;49.120;-0.200;2023-01-28T07:48:33;102876.22;;;8.40;61.59
35910;BME280;22004;49.120;-0.200;2023-01-28T07:50:59;102881.28;;;8.56;61.78
35910;BME280;22004;49.120;-0.200;2023-01-28T07:53:25;102875.81;;;8.57;61.47
35910;BME280;22004;49.120;-0.200;2023-01-28T07:55:51;102867.91;;;8.56;61.76
35910;BME280;22004;49.120;-0.200;2023-01-28T07:58:16;102860.81;;;8.54;61.63
35910;BME280;22004;49.120;-0.200;2023-01-28T08:00:41;102869.31;;;8.48;61.88
35910;BME280;22004;49.120;-0.200;2023-01-28T08:03:13;102871.66;;;8.53;61.91
35910;BME280;22004;49.120;-0.200;2023-01-28T08:05:45;102875.19;;;8.53;61.52
35910;BME280;22004;49.120;-0.200;2023-01-28T08:08:11;102868.63;;;8.58;61.52
35910;BME280;22004;49.120;-0.200;2023-01-28T08:10:37;102870.47;;;8.57;61.63
35910;BME280;22004;49.120;-0.200;2023-01-28T08:13:03;102876.66;;;8.58;61.79
35910;BME280;22004;49.120;-0.200;2023-01-28T08:15:32;102872.28;;;8.57;61.76
35910;BME280;22004;49.120;-0.200;2023-01-28T08:17:58;102870.84;;;8.64;61.70
35910;BME280;22004;49.120;-0.200;2023-01-28T08:20:25;102879.00;;;8.62;61.50
35910;BME280;22004;49.120;-0.200;2023-01-28T08:22:51;102875.69;;;8.59;61.64
35910;BME280;22004;49.120;-0.200;2023-01-28T08:25:16;102875.84;;;8.68;61.30
35910;BME280;22004;49.120;-0.200;2023-01-28T08:27:42;102874.28;;;8.66;61.41
35910;BME280;22004;49.120;-0.200;2023-01-28T08:30:08;102880.53;;;8.53;61.90
35910;BME280;22004;49.120;-0.200;2023-01-28T08:32:34;102883.84;;;8.57;61.88
35910;BME280;22004;49.120;-0.200;2023-01-28T08:35:00;102884.47;;;8.61;61.76
35910;BME280;22004;49.120;-0.200;2023-01-28T08:37:25;102867.16;;;8.53;61.64
35910;BME280;22004;49.120;-0.200;2023-01-28T08:39:50;102873.69;;;8.49;61.96
35910;BME280;22004;49.120;-0.200;2023-01-28T08:42:16;102881.88;;;8.35;62.50
35910;BME280;22004;49.120;-0.200;2023-01-28T08:44:44;102885.84;;;8.29;62.43
35910;BME280;22004;49.120;-0.200;2023-01-28T08:47:10;102899.47;;;8.26;63.13
35910;BME280;22004;49.120;-0.200;2023-01-28T08:49:35;102890.69;;;8.24;62.50
35910;BME280;22004;49.120;-0.200;2023-01-28T08:52:00;102899.94;;;8.44;62.07
35910;BME280;22004;49.120;-0.200;2023-01-28T08:54:26;102903.81;;;8.64;61.82
35910;BME280;22004;49.120;-0.200;2023-01-28T08:56:51;102914.13;;;8.82;61.43
35910;BME280;22004;49.120;-0.200;2023-01-28T08:59:17;102897.38;;;8.91;60.83
35910;BME280;22004;49.120;-0.200;2023-01-28T09:01:42;102910.75;;;8.91;61.32
35910;BME280;22004;49.120;-0.200;2023-01-28T09:04:08;102901.75;;;8.92;60.66
35910;BME280;22004;49.120;-0.200;2023-01-28T09:06:33;102910.19;;;9.10;60.49
35910;BME280;22004;49.120;-0.200;2023-01-28T09:08:59;102920.91;;;8.74;61.10
35910;BME280;22004;49.120;-0.200;2023-01-28T09:11:25;102920.97;;;8.86;61.26
35910;BME280;22004;49.120;-0.200;2023-01-28T09:13:51;102921.44;;;8.56;61.16
35910;BME280;22004;49.120;-0.200;2023-01-28T09:16:16;102932.16;;;8.56;62.02
35910;BME280;22004;49.120;-0.200;2023-01-28T09:18:41;102927.50;;;7.97;61.37
35910;BME280;22004;49.120;-0.200;2023-01-28T09:21:07;102928.47;;;8.45;62.55
35910;BME280;22004;49.120;-0.200;2023-01-28T09:23:34;102932.91;;;8.93;60.92
35910;BME280;22004;49.120;-0.200;2023-01-28T09:26:01;102934.19;;;8.52;62.33
35910;BME280;22004;49.120;-0.200;2023-01-28T09:28:27;102932.59;;;8.49;62.28
35910;BME280;22004;49.120;-0.200;2023-01-28T09:31:00;102935.53;;;8.70;61.60
35910;BME280;22004;49.120;-0.200;2023-01-28T09:33:25;102940.75;;;8.72;62.17
35910;BME280;22004;49.120;-0.200;2023-01-28T09:35:50;102943.41;;;8.11;63.49
35910;BME280;22004;49.120;-0.200;2023-01-28T09:38:16;102943.03;;;8.65;62.09
35910;BME280;22004;49.120;-0.200;2023-01-28T09:40:42;102950.94;;;8.67;62.22
35910;BME280;22004;49.120;-0.200;2023-01-28T09:46:13;102949.41;;;8.75;61.93
35910;BME280;22004;49.120;-0.200;2023-01-28T09:48:43;102955.38;;;8.79;62.14
35910;BME280;22004;49.120;-0.200;2023-01-28T09:51:25;102954.94;;;8.85;60.84
35910;BME280;22004;49.120;-0.200;2023-01-28T09:53:54;102950.59;;;8.95;60.53
35910;BME280;22004;49.120;-0.200;2023-01-28T09:56:31;102962.75;;;8.99;60.92
35910;BME280;22004;49.120;-0.200;2023-01-28T09:59:13;102968.63;;;8.20;62.47
35910;BME280;22004;49.120;-0.200;2023-01-28T10:09:48;102976.66;;;9.04;60.86
35910;BME280;22004;49.120;-0.200;2023-01-28T10:12:23;102984.84;;;8.79;60.66
35910;BME280;22004;49.120;-0.200;2023-01-28T10:17:56;102964.56;;;8.88;60.64
35910;BME280;22004;49.120;-0.200;2023-01-28T10:20:31;102974.75;;;8.83;56.91
35910;BME280;22004;49.120;-0.200;2023-01-28T10:23:13;102984.41;;;8.85;59.62
35910;BME280;22004;49.120;-0.200;2023-01-28T10:25:41;102991.81;;;9.05;59.69
35910;BME280;22004;49.120;-0.200;2023-01-28T10:28:27;102983.34;;;8.75;58.45
35910;BME280;22004;49.120;-0.200;2023-01-28T10:30:53;102982.03;;;9.04;60.13
35910;BME280;22004;49.120;-0.200;2023-01-28T10:33:34;102981.59;;;8.87;59.46
35910;BME280;22004;49.120;-0.200;2023-01-28T10:36:01;102986.75;;;9.25;59.67
35910;BME280;22004;49.120;-0.200;2023-01-28T10:38:27;102980.28;;;9.27;58.42
35910;BME280;22004;49.120;-0.200;2023-01-28T10:40:57;102988.44;;;8.91;60.48
35910;BME280;22004;49.120;-0.200;2023-01-28T10:43:28;102991.91;;;8.56;59.96
35910;BME280;22004;49.120;-0.200;2023-01-28T10:45:56;102991.00;;;8.68;59.07
35910;BME280;22004;49.120;-0.200;2023-01-28T10:48:29;102984.44;;;8.72;57.38
35910;BME280;22004;49.120;-0.200;2023-01-28T10:50:58;102978.81;;;8.88;57.58
35910;BME280;22004;49.120;-0.200;2023-01-28T10:53:39;102981.69;;;9.09;58.51
35910;BME280;22004;49.120;-0.200;2023-01-28T10:56:17;102993.00;;;9.01;60.14
35910;BME280;22004;49.120;-0.200;2023-01-28T10:59:00;102979.69;;;9.00;59.96
35910;BME280;22004;49.120;-0.200;2023-01-28T11:01:58;102980.56;;;9.00;60.14
35910;BME280;22004;49.120;-0.200;2023-01-28T11:04:33;102972.38;;;9.26;59.24
35910;BME280;22004;49.120;-0.200;2023-01-28T11:07:00;102973.06;;;9.17;59.58
35910;BME280;22004;49.120;-0.200;2023-01-28T11:09:34;102970.72;;;8.77;60.13
35910;BME280;22004;49.120;-0.200;2023-01-28T11:12:12;102972.19;;;9.05;59.60
35910;BME280;22004;49.120;-0.200;2023-01-28T11:14:48;102963.31;;;8.57;58.26
35910;BME280;22004;49.120;-0.200;2023-01-28T11:17:15;102965.34;;;8.16;59.73
35910;BME280;22004;49.120;-0.200;2023-01-28T11:19:42;102970.06;;;8.97;60.44
35910;BME280;22004;49.120;-0.200;2023-01-28T11:22:38;102964.84;;;9.31;58.69
35910;BME280;22004;49.120;-0.200;2023-01-28T11:25:06;102963.75;;;8.98;60.25
35910;BME280;22004;49.120;-0.200;2023-01-28T11:27:40;102955.78;;;9.21;59.27
35910;BME280;22004;49.120;-0.200;2023-01-28T11:30:26;102958.78;;;9.63;58.69
35910;BME280;22004;49.120;-0.200;2023-01-28T11:33:06;102970.91;;;8.13;61.17
35910;BME280;22004;49.120;-0.200;2023-01-28T11:35:39;102966.28;;;9.00;59.90
35910;BME280;22004;49.120;-0.200;2023-01-28T11:38:17;102959.91;;;8.90;60.18
35910;BME280;22004;49.120;-0.200;2023-01-28T11:40:53;102964.78;;;8.85;60.61
35910;BME280;22004;49.120;-0.200;2023-01-28T11:43:21;102955.03;;;8.60;60.28
35910;BME280;22004;49.120;-0.200;2023-01-28T11:46:13;102947.28;;;9.27;59.91
35910;BME280;22004;49.120;-0.200;2023-01-28T11:49:20;102957.78;;;7.85;60.22
35910;BME280;22004;49.120;-0.200;2023-01-28T11:57:00;102947.41;;;9.25;60.15
35910;BME280;22004;49.120;-0.200;2023-01-28T12:21:32;102934.88;;;7.81;63.81
35910;BME280;22004;49.120;-0.200;2023-01-28T12:27:02;102935.31;;;8.85;60.54
35910;BME280;22004;49.120;-0.200;2023-01-28T12:35:16;102921.88;;;8.25;61.47
35910;BME280;22004;49.120;-0.200;2023-01-28T12:37:58;102925.91;;;8.79;60.29
35910;BME280;22004;49.120;-0.200;2023-01-28T12:43:25;102901.56;;;8.71;58.58
35910;BME280;22004;49.120;-0.200;2023-01-28T12:46:02;102900.72;;;9.17;59.22
35910;BME280;22004;49.120;-0.200;2023-01-28T12:48:32;102892.75;;;8.69;59.44
35910;BME280;22004;49.120;-0.200;2023-01-28T12:53:39;102892.84;;;8.91;61.08
35910;BME280;22004;49.120;-0.200;2023-01-28T12:56:14;102895.78;;;8.64;61.21
35910;BME280;22004;49.120;-0.200;2023-01-28T12:58:50;102898.25;;;8.43;62.76
35910;BME280;22004;49.120;-0.200;2023-01-28T13:01:36;102896.34;;;8.45;62.56
35910;BME280;22004;49.120;-0.200;2023-01-28T13:04:09;102881.81;;;8.61;62.28
35910;BME280;22004;49.120;-0.200;2023-01-28T13:06:45;102869.78;;;8.29;61.96
35910;BME280;22004;49.120;-0.200;2023-01-28T13:09:20;102875.50;;;8.73;60.51
35910;BME280;22004;49.120;-0.200;2023-01-28T13:11:49;102869.63;;;8.20;63.27
35910;BME280;22004;49.120;-0.200;2023-01-28T13:14:15;102861.28;;;9.30;58.61
35910;BME280;22004;49.120;-0.200;2023-01-28T13:16:41;102851.88;;;9.47;59.27
35910;BME280;22004;49.120;-0.200;2023-01-28T13:21:45;102854.81;;;9.32;60.28
35910;BME280;22004;49.120;-0.200;2023-01-28T13:31:41;102824.72;;;9.51;57.84
35910;BME280;22004;49.120;-0.200;2023-01-28T13:34:25;102832.69;;;8.01;61.32
35910;BME280;22004;49.120;-0.200;2023-01-28T13:36:52;102819.22;;;9.19;60.33
35910;BME280;22004;49.120;-0.200;2023-01-28T13:39:23;102820.56;;;9.47;59.96
35910;BME280;22004;49.120;-0.200;2023-01-28T13:41:54;102821.53;;;9.57;59.74
35910;BME280;22004;49.120;-0.200;2023-01-28T13:44:30;102836.56;;;8.45;60.81
35910;BME280;22004;49.120;-0.200;2023-01-28T13:47:20;102831.53;;;9.11;60.56
35910;BME280;22004;49.120;-0.200;2023-01-28T13:49:49;102841.84;;;9.04;60.46
35910;BME280;22004;49.120;-0.200;2023-01-28T13:52:25;102852.06;;;8.88;60.92
35910;BME280;22004;49.120;-0.200;2023-01-28T14:00:33;102847.97;;;9.84;58.95
35910;BME280;22004;49.120;-0.200;2023-01-28T14:03:28;102865.41;;;9.34;60.55
35910;BME280;22004;49.120;-0.200;2023-01-28T14:12:45;102873.69;;;8.85;60.61
35910;BME280;22004;49.120;-0.200;2023-01-28T14:17:56;102886.41;;;8.94;60.69
35910;BME280;22004;49.120;-0.200;2023-01-28T14:20:24;102885.84;;;9.13;60.88
35910;BME280;22004;49.120;-0.200;2023-01-28T14:22:52;102882.19;;;8.67;62.42
35910;BME280;22004;49.120;-0.200;2023-01-28T14:25:28;102870.94;;;8.86;61.35
35910;BME280;22004;49.120;-0.200;2023-01-28T14:27:57;102874.13;;;9.14;60.98
35910;BME280;22004;49.120;-0.200;2023-01-28T14:30:35;102880.53;;;8.89;61.43
35910;BME280;22004;49.120;-0.200;2023-01-28T14:33:08;102889.84;;;8.37;62.19
35910;BME280;22004;49.120;-0.200;2023-01-28T14:35:37;102881.41;;;8.17;63.27
35910;BME280;22004;49.120;-0.200;2023-01-28T14:38:08;102893.13;;;8.40;62.62
35910;BME280;22004;49.120;-0.200;2023-01-28T14:40:38;102889.00;;;7.74;64.35